Time;durP1;ratioP1;P1;durP2;ratioP2;P2;SDS_P1;SDS_P2;PMS_P1;PMS_P2;Temp;Humidity;BMP_temperature;BMP_pressure;BME280_temperature;BME280_humidity;BME280_pressure;Samples;Min_cycle;Max_cycle;Signal;HPM_P1;HPM_P2
2022/01/29 14:03:45;;;;;;;18.95;6.03;;;;;;;7.97;100.00;101600.88;5075194;22;20429;-74
2022/01/29 14:06:33;;;;;;;18.75;4.75;;;;;;;7.57;100.00;101529.75;5022086;28;20088;-77
2022/01/29 14:09:15;;;;;;;17.38;2.58;;;;;;;7.99;100.00;101606.84;5038824;28;20033;-73
2022/01/29 14:12:03;;;;;;;17.27;2.63;;;;;;;8.05;100.00;101579.31;5055586;28;20025;-74
2022/01/29 14:14:42;;;;;;;12.30;2.50;;;;;;;8.07;100.00;101575.66;5024183;28;20193;-74
2022/01/29 14:17:27;;;;;;;20.63;2.60;;;;;;;8.10;100.00;101612.28;5059442;28;20025;-74
2022/01/29 14:19:56;;;;;;;12.45;2.53;;;;;;;8.22;100.00;101581.72;5024243;28;20025;-74
2022/01/29 14:22:24;;;;;;;17.25;2.72;;;;;;;7.74;100.00;101482.22;5041316;28;20033;-74
2022/01/29 14:24:51;;;;;;;15.68;2.28;;;;;;;8.12;100.00;101554.31;5051630;28;20021;-76
2022/01/29 14:27:17;;;;;;;12.70;2.70;;;;;;;8.02;100.00;101554.06;5008582;28;20030;-75
2022/01/29 14:29:44;;;;;;;15.98;2.40;;;;;;;7.99;100.00;101564.75;5044847;28;20124;-73
2022/01/29 14:32:12;;;;;;;18.35;2.78;;;;;;;8.21;100.00;101595.81;5053616;23;20163;-77
2022/01/29 14:34:38;;;;;;;15.13;2.80;;;;;;;8.32;100.00;101619.66;5047347;28;20044;-78
2022/01/29 14:37:04;;;;;;;19.90;4.35;;;;;;;7.69;100.00;101512.34;5046231;28;20016;-75
2022/01/29 14:39:30;;;;;;;20.48;4.15;;;;;;;8.44;100.00;101625.94;5030746;28;20013;-74
2022/01/29 14:41:59;;;;;;;14.90;2.90;;;;;;;8.04;100.00;101514.50;5036463;28;20103;-74
2022/01/29 14:44:30;;;;;;;20.23;2.30;;;;;;;8.68;100.00;101617.41;5025773;28;20044;-75
2022/01/29 14:46:58;;;;;;;11.30;2.40;;;;;;;8.21;100.00;101532.66;5032230;28;20021;-75
2022/01/29 14:49:26;;;;;;;15.80;3.10;;;;;;;8.15;100.00;101525.16;5030605;28;20047;-75
2022/01/29 14:51:57;;;;;;;22.98;6.25;;;;;;;8.40;100.00;101549.88;5039265;28;20044;-77
2022/01/29 14:54:27;;;;;;;14.23;2.63;;;;;;;8.34;100.00;101544.06;5046201;28;20467;-74
2022/01/29 14:56:55;;;;;;;19.73;3.33;;;;;;;8.71;100.00;101622.44;5031125;28;20021;-75
2022/01/29 14:59:31;;;;;;;19.25;2.40;;;;;;;7.44;100.00;101423.72;5033536;28;20111;-74
2022/01/29 15:01:57;;;;;;;19.38;3.00;;;;;;;7.99;100.00;101527.09;5066617;28;20041;-74
2022/01/29 15:04:26;;;;;;;26.50;7.28;;;;;;;8.02;100.00;101504.09;5037055;28;20044;-74
2022/01/29 15:06:51;;;;;;;17.25;3.70;;;;;;;8.50;100.00;101611.53;5053646;28;20025;-75
2022/01/29 15:09:19;;;;;;;20.50;5.22;;;;;;;8.27;100.00;101595.44;5035795;28;20083;-74
2022/01/29 15:11:45;;;;;;;17.42;2.47;;;;;;;8.36;100.00;101633.47;5051435;28;20029;-74
2022/01/29 15:14:14;;;;;;;11.52;3.38;;;;;;;8.04;100.00;101548.69;5024628;28;20427;-75
2022/01/29 15:16:42;;;;;;;15.00;2.47;;;;;;;7.65;100.00;101537.13;5038993;28;20462;-74
2022/01/29 15:19:08;;;;;;;19.98;3.63;;;;;;;8.18;100.00;101563.63;5022593;28;20087;-75
2022/01/29 15:21:35;;;;;;;17.92;2.72;;;;;;;8.53;100.00;101677.97;5043517;28;20025;-74
2022/01/29 15:24:03;;;;;;;14.48;2.88;;;;;;;8.34;100.00;101588.81;5021800;28;20025;-74
2022/01/29 15:26:29;;;;;;;17.58;2.50;;;;;;;8.00;100.00;101578.78;5020904;28;20104;-74
2022/01/29 15:28:54;;;;;;;18.15;2.63;;;;;;;7.94;100.00;101554.53;5022079;28;20053;-73
2022/01/29 15:31:23;;;;;;;17.20;2.80;;;;;;;8.60;100.00;101664.44;5021754;28;20037;-74
2022/01/29 15:33:49;;;;;;;18.75;2.65;;;;;;;8.56;100.00;101679.56;5039312;28;20079;-74
2022/01/29 15:36:15;;;;;;;22.27;4.50;;;;;;;8.10;100.00;101607.00;5037557;28;20033;-75
2022/01/29 15:38:42;;;;;;;32.22;13.02;;;;;;;8.38;100.00;101642.13;5041381;28;20431;-75
2022/01/29 15:41:08;;;;;;;22.50;5.30;;;;;;;8.58;100.00;101680.31;5039972;28;20377;-75
2022/01/29 15:43:39;;;;;;;21.42;4.78;;;;;;;8.45;100.00;101653.09;5044738;28;20029;-75
2022/01/29 15:46:08;;;;;;;16.70;3.47;;;;;;;8.55;100.00;101691.06;5024059;28;20370;-78
2022/01/29 15:48:37;;;;;;;22.70;4.20;;;;;;;8.00;100.00;101613.81;5024235;28;20584;-77
2022/01/29 15:51:05;;;;;;;18.92;2.88;;;;;;;7.95;100.00;101623.78;5042335;28;20032;-77
2022/01/29 15:53:31;;;;;;;10.93;2.20;;;;;;;7.71;100.00;101577.03;5023304;28;20385;-77
2022/01/29 15:55:57;;;;;;;16.13;2.53;;;;;;;8.07;100.00;101630.91;5044988;28;20029;-75
2022/01/29 15:58:23;;;;;;;23.13;4.00;;;;;;;7.77;100.00;101588.97;5027815;28;20025;-77
2022/01/29 16:00:58;;;;;;;22.77;7.43;;;;;;;8.05;100.00;101610.91;5048046;28;20029;-78
2022/01/29 16:03:25;;;;;;;36.58;13.77;;;;;;;8.56;100.00;101737.50;5063403;28;20033;-77
2022/01/29 16:05:59;;;;;;;27.15;7.40;;;;;;;8.22;100.00;101688.75;5063303;28;20052;-77
2022/01/29 16:08:25;;;;;;;24.05;7.10;;;;;;;8.14;100.00;101666.38;5060497;22;20061;-79
2022/01/29 16:10:56;;;;;;;24.95;8.25;;;;;;;7.97;100.00;101642.94;4992978;28;20101;-77
2022/01/29 16:13:24;;;;;;;18.67;3.88;;;;;;;8.32;100.00;101758.28;5030291;28;20018;-78
2022/01/29 16:15:50;;;;;;;24.55;4.80;;;;;;;7.97;100.00;101692.94;4991462;28;20490;-77
2022/01/29 16:18:17;;;;;;;32.22;6.60;;;;;;;8.03;100.00;101725.88;5029113;28;20084;-78
2022/01/29 16:20:43;;;;;;;26.42;5.95;;;;;;;8.01;100.00;101736.47;4993390;28;20111;-75
2022/01/29 16:23:10;;;;;;;29.20;4.72;;;;;;;7.47;100.00;101670.53;5044871;28;20051;-76
2022/01/29 16:25:41;;;;;;;22.83;4.13;;;;;;;7.64;100.00;101715.06;5004634;28;20048;-76
2022/01/29 16:28:12;;;;;;;22.40;3.53;;;;;;;7.95;100.00;101771.91;5022989;28;20029;-77
2022/01/29 16:30:40;;;;;;;24.70;3.92;;;;;;;7.72;100.00;101754.03;5006830;28;20029;-78
2022/01/29 16:35:36;;;;;;;29.05;5.15;;;;;;;7.79;100.00;101754.50;5028600;28;19929;-74
2022/01/29 16:38:04;;;;;;;35.85;4.80;;;;;;;7.74;100.00;101789.81;5034890;28;20037;-73
2022/01/29 16:40:31;;;;;;;32.60;5.53;;;;;;;7.54;100.00;101753.34;5030402;28;20021;-74
2022/01/29 16:42:57;;;;;;;33.10;5.22;;;;;;;7.80;100.00;101811.44;5031949;28;20026;-73
2022/01/29 16:45:24;;;;;;;31.23;6.00;;;;;;;7.79;100.00;101810.59;5009103;22;20089;-74
2022/01/29 16:47:52;;;;;;;26.05;3.75;;;;;;;7.58;100.00;101796.91;4978132;28;20511;-72
2022/01/29 16:50:17;;;;;;;32.53;4.30;;;;;;;7.76;100.00;101813.38;4987314;23;20074;-73
2022/01/29 16:52:44;;;;;;;31.67;5.03;;;;;;;7.54;100.00;101795.41;4982910;28;20439;-74
2022/01/29 16:55:12;;;;;;;27.98;5.00;;;;;;;7.70;100.00;101829.53;4991156;28;20038;-73
2022/01/29 16:57:38;;;;;;;24.95;4.38;;;;;;;7.47;100.00;101810.69;4979255;28;20023;-73
2022/01/29 17:00:05;;;;;;;31.88;4.78;;;;;;;7.38;100.00;101819.09;4969709;28;20045;-77
2022/01/29 17:04:56;;;;;;;33.80;5.03;;;;;;;7.52;100.00;101860.34;5040549;22;20078;-76
2022/01/29 17:07:23;;;;;;;198.45;84.97;;;;;;;7.55;100.00;101861.97;4990233;28;21567;-73
2022/01/29 17:09:51;;;;;;;40.83;7.25;;;;;;;7.50;100.00;101865.69;5007992;28;20013;-75
2022/01/29 17:12:20;;;;;;;33.67;6.57;;;;;;;7.35;100.00;101863.94;5013910;28;20120;-72
2022/01/29 17:14:46;;;;;;;38.47;5.43;;;;;;;7.29;100.00;101865.13;5014795;28;20052;-72
2022/01/29 17:17:11;;;;;;;34.58;5.50;;;;;;;7.25;100.00;101847.00;5005014;28;20030;-73
2022/01/29 17:19:37;;;;;;;45.88;5.93;;;;;;;7.24;100.00;101864.53;4981114;28;20026;-72
2022/01/29 17:22:02;;;;;;;33.40;4.82;;;;;;;7.22;100.00;101882.19;4979248;28;20068;-72
2022/01/29 17:24:28;;;;;;;33.40;5.47;;;;;;;7.04;100.00;101864.78;4980365;28;20406;-72
2022/01/29 17:26:54;;;;;;;39.40;5.80;;;;;;;7.05;100.00;101875.22;4982494;28;20141;-73
2022/01/29 17:29:19;;;;;;;43.70;7.00;;;;;;;7.15;100.00;101883.41;4999649;28;20085;-73
2022/01/29 17:31:47;;;;;;;40.10;7.72;;;;;;;7.17;100.00;101902.56;4990407;28;20505;-73
2022/01/29 17:34:18;;;;;;;38.63;6.18;;;;;;;7.21;100.00;101908.53;4989919;28;20040;-73
2022/01/29 17:36:52;;;;;;;36.72;5.57;;;;;;;7.33;100.00;101905.19;5028625;28;20025;-76
2022/01/29 17:39:18;;;;;;;31.67;6.53;;;;;;;7.28;100.00;101917.75;4993459;28;20104;-74
2022/01/29 17:41:45;;;;;;;36.63;6.13;;;;;;;7.12;100.00;101886.22;5035438;28;20444;-80
2022/01/29 17:44:17;;;;;;;36.15;5.97;;;;;;;7.03;100.00;101884.09;5018841;28;20094;-79
2022/01/29 17:46:45;;;;;;;83.55;26.67;;;;;;;7.15;100.00;101908.84;5000705;28;20091;-71
2022/01/29 17:49:10;;;;;;;43.65;8.05;;;;;;;7.17;100.00;101912.25;5015080;28;20132;-71
2022/01/29 17:51:36;;;;;;;31.90;4.90;;;;;;;6.99;100.00;101911.47;5032833;28;20053;-71
2022/01/29 17:54:02;;;;;;;30.13;5.45;;;;;;;7.13;100.00;101922.09;5015728;28;20040;-72
2022/01/29 17:56:31;;;;;;;37.60;5.85;;;;;;;7.15;100.00;101954.34;5018376;28;20097;-76
2022/01/29 17:58:56;;;;;;;26.92;5.68;;;;;;;6.90;100.00;101920.69;5034495;28;20037;-72
2022/01/29 18:01:22;;;;;;;42.03;6.65;;;;;;;7.01;100.00;101954.25;5014606;28;20021;-71
2022/01/29 18:03:48;;;;;;;35.95;7.43;;;;;;;7.01;100.00;101954.25;5014327;28;20041;-71
2022/01/29 18:06:14;;;;;;;32.22;5.25;;;;;;;6.99;100.00;101951.69;5024500;28;20038;-71
2022/01/29 18:08:40;;;;;;;36.58;5.60;;;;;;;6.88;100.00;101954.03;5045054;28;20482;-72
2022/01/29 18:11:11;;;;;;;42.85;5.18;;;;;;;6.73;100.00;101949.63;5032076;28;20029;-78
2022/01/29 18:13:37;;;;;;;32.08;5.97;;;;;;;6.80;100.00;101932.63;5031766;28;20016;-71
2022/01/29 18:16:04;;;;;;;31.90;5.20;;;;;;;6.72;100.00;101958.41;5023719;28;20021;-73
2022/01/29 18:18:30;;;;;;;34.67;5.10;;;;;;;6.75;100.00;101971.41;5033424;28;20040;-77
2022/01/29 18:20:56;;;;;;;38.15;5.85;;;;;;;6.77;100.00;101967.75;5049978;28;20029;-76
2022/01/29 18:23:24;;;;;;;38.95;5.20;;;;;;;6.69;100.00;101954.19;5032871;28;20054;-73
2022/01/29 18:25:52;;;;;;;36.45;5.75;;;;;;;6.63;100.00;101952.72;5032541;28;20485;-73
2022/01/29 18:28:23;;;;;;;40.58;6.22;;;;;;;6.57;100.00;101966.16;5052554;28;20049;-75
2022/01/29 18:30:51;;;;;;;30.88;7.30;;;;;;;6.73;100.00;102004.75;5033683;28;20032;-72
2022/01/29 18:33:18;;;;;;;36.53;7.40;;;;;;;6.63;100.00;101986.84;5005842;28;20050;-71
2022/01/29 18:35:44;;;;;;;30.63;4.50;;;;;;;6.54;100.00;101958.47;5028704;28;20022;-70
2022/01/29 18:38:14;;;;;;;34.10;4.50;;;;;;;6.60;100.00;101960.75;5026403;28;20119;-71
2022/01/29 18:40:42;;;;;;;31.65;4.80;;;;;;;6.62;100.00;101971.16;5035259;28;20035;-74
2022/01/29 18:43:11;;;;;;;74.50;20.63;;;;;;;6.76;100.00;102013.31;5012697;28;20127;-73
2022/01/29 18:45:38;;;;;;;46.70;12.60;;;;;;;6.85;100.00;102007.56;5032629;28;20027;-77
2022/01/29 18:48:04;;;;;;;30.88;4.78;;;;;;;6.54;100.00;101963.72;5033787;28;20025;-71
2022/01/29 18:50:32;;;;;;;32.60;6.18;;;;;;;6.71;100.00;102004.81;5020828;28;20026;-73
2022/01/29 18:52:58;;;;;;;42.42;5.40;;;;;;;6.79;100.00;102028.03;5032918;28;20491;-78
2022/01/29 18:55:32;;;;;;;44.45;12.80;;;;;;;6.87;100.00;102029.34;5020856;28;20344;-77
2022/01/29 18:57:59;;;;;;;28.10;5.35;;;;;;;6.81;100.00;102021.81;5040198;23;20771;-72
2022/01/29 19:00:26;;;;;;;30.45;4.50;;;;;;;6.80;100.00;102029.75;5005333;28;20041;-75
2022/01/29 19:02:52;;;;;;;40.47;12.23;;;;;;;6.89;100.00;102039.78;5016986;28;20029;-73
2022/01/29 19:05:18;;;;;;;26.38;4.43;;;;;;;6.92;100.00;102065.88;4998361;28;20022;-74
2022/01/29 19:07:44;;;;;;;38.30;9.43;;;;;;;6.95;100.00;102056.97;5005126;28;20432;-75
2022/01/29 19:10:15;;;;;;;36.83;5.85;;;;;;;6.65;100.00;102023.50;4998206;28;20032;-74
2022/01/29 19:12:42;;;;;;;29.00;5.15;;;;;;;6.78;100.00;102069.22;5016783;28;20022;-74
2022/01/29 19:15:09;;;;;;;32.75;5.65;;;;;;;6.75;100.00;102065.91;5018984;28;20067;-74
2022/01/29 19:17:37;;;;;;;26.17;5.97;;;;;;;6.84;100.00;102073.31;5008543;28;20126;-75
2022/01/29 19:20:04;;;;;;;43.53;9.90;;;;;;;6.53;100.00;102061.72;5019781;28;20025;-77
2022/01/29 19:22:33;;;;;;;59.35;17.08;;;;;;;6.65;100.00;102086.50;5019995;28;20033;-78
2022/01/29 19:25:10;;;;;;;70.20;21.50;;;;;;;6.39;100.00;102066.81;5019411;28;20017;-76
2022/01/29 19:27:40;;;;;;;39.85;8.48;;;;;;;6.45;100.00;102054.25;5036987;28;20513;-77
2022/01/29 19:30:08;;;;;;;42.28;9.43;;;;;;;6.51;100.00;102074.06;5019165;28;20033;-79
2022/01/29 19:32:34;;;;;;;42.85;9.35;;;;;;;6.58;100.00;102111.34;5020735;28;20499;-78
2022/01/29 19:34:59;;;;;;;36.58;7.43;;;;;;;6.55;100.00;102109.72;5022881;28;20120;-72
2022/01/29 19:37:26;;;;;;;27.05;4.43;;;;;;;6.28;100.00;102086.53;4993676;28;20026;-74
2022/01/29 19:39:51;;;;;;;35.75;4.97;;;;;;;6.27;100.00;102087.47;4980677;28;20033;-73
2022/01/29 19:42:17;;;;;;;36.30;4.72;;;;;;;6.16;100.00;102063.53;4979472;28;20037;-73
2022/01/29 19:44:47;;;;;;;51.35;7.40;;;;;;;6.67;100.00;102118.78;4998625;28;20084;-77
2022/01/29 19:47:13;;;;;;;41.83;9.05;;;;;;;6.37;100.00;102080.00;4981840;28;20034;-73
2022/01/29 19:49:43;;;;;;;30.45;4.85;;;;;;;6.33;100.00;102095.94;5011094;28;20017;-74
2022/01/29 19:52:11;;;;;;;30.60;4.40;;;;;;;6.41;100.00;102130.56;5022504;28;20049;-74
2022/01/29 19:54:37;;;;;;;29.50;5.07;;;;;;;6.17;100.00;102095.84;4999962;28;20025;-74
2022/01/29 19:57:07;;;;;;;30.83;5.10;;;;;;;6.32;100.00;102144.97;4998066;28;20105;-74
2022/01/29 19:59:36;;;;;;;24.38;4.53;;;;;;;6.21;100.00;102126.25;5012439;28;20052;-74
2022/01/29 20:02:03;;;;;;;33.72;5.20;;;;;;;6.29;100.00;102155.59;4998564;28;20038;-72
2022/01/29 20:04:30;;;;;;;26.35;4.32;;;;;;;6.24;100.00;102154.94;5016223;28;20029;-73
2022/01/29 20:06:56;;;;;;;36.20;4.63;;;;;;;6.17;100.00;102145.69;4997536;28;20033;-74
2022/01/29 20:09:26;;;;;;;28.85;4.82;;;;;;;6.29;100.00;102142.50;5005565;28;20025;-73
2022/01/29 20:11:56;;;;;;;25.98;4.82;;;;;;;6.25;100.00;102139.16;5002264;28;20092;-79
2022/01/29 20:14:22;;;;;;;164.38;58.05;;;;;;;6.05;100.00;102099.91;5016232;28;20053;-76
2022/01/29 20:16:48;;;;;;;35.40;9.50;;;;;;;6.50;100.00;102155.50;5036026;28;20029;-76
2022/01/29 20:19:13;;;;;;;45.95;9.80;;;;;;;6.28;100.00;102138.16;5015443;28;20091;-72
2022/01/29 20:21:40;;;;;;;36.80;5.80;;;;;;;6.36;100.00;102166.63;4996719;28;20096;-73
2022/01/29 20:24:10;;;;;;;31.17;4.40;;;;;;;6.04;100.00;102122.66;4986987;28;20033;-73
2022/01/29 20:26:36;;;;;;;23.58;4.15;;;;;;;6.28;100.00;102159.13;5007465;28;20123;-73
2022/01/29 20:29:05;;;;;;;33.20;4.68;;;;;;;6.21;100.00;102152.47;4990512;28;20416;-72
2022/01/29 20:31:31;;;;;;;30.98;4.47;;;;;;;6.32;100.00;102165.09;4998585;28;20052;-73
2022/01/29 20:33:57;;;;;;;30.95;4.65;;;;;;;5.94;100.00;102116.13;5009336;28;20053;-73
2022/01/29 20:36:32;;;;;;;26.27;4.70;;;;;;;6.17;100.00;102154.38;4980563;28;20034;-72
2022/01/29 20:39:09;;;;;;;33.55;5.20;;;;;;;6.24;100.00;102168.06;4990496;28;20025;-72
2022/01/29 20:41:36;;;;;;;38.17;4.90;;;;;;;6.23;100.00;102179.50;4999100;28;20034;-73
2022/01/29 20:44:06;;;;;;;29.55;4.95;;;;;;;6.05;100.00;102171.53;4970293;28;20036;-73
2022/01/29 20:46:34;;;;;;;32.83;4.93;;;;;;;6.04;100.00;102182.09;4987213;28;20072;-71
2022/01/29 20:49:01;;;;;;;35.95;4.80;;;;;;;6.10;100.00;102181.81;4995293;28;20116;-72
2022/01/29 20:51:28;;;;;;;50.40;15.23;;;;;;;5.99;100.00;102177.06;5016578;28;20040;-77
2022/01/29 20:53:54;;;;;;;28.35;4.30;;;;;;;5.96;100.00;102189.47;5014546;28;20030;-74
2022/01/29 20:56:20;;;;;;;31.42;4.97;;;;;;;5.84;100.00;102155.00;5010895;28;20060;-74
2022/01/29 20:58:45;;;;;;;31.50;4.85;;;;;;;5.77;100.00;102144.88;4988913;28;20042;-73
2022/01/29 21:01:12;;;;;;;31.30;5.72;;;;;;;5.80;100.00;102163.91;4977127;28;20046;-72
2022/01/29 21:03:40;;;;;;;35.72;4.32;;;;;;;5.70;100.00;102161.78;4979878;28;20084;-73
2022/01/29 21:06:08;;;;;;;33.95;4.35;;;;;;;5.98;100.00;102192.88;4993451;28;20413;-74
2022/01/29 21:08:36;;;;;;;30.90;4.68;;;;;;;5.83;100.00;102181.28;4977200;28;20085;-74
2022/01/29 21:11:02;;;;;;;28.88;3.85;;;;;;;5.94;100.00;102214.88;4993412;28;20049;-72
2022/01/29 21:13:32;;;;;;;22.27;4.50;;;;;;;5.73;100.00;102172.97;4970891;28;20459;-73
2022/01/29 21:15:58;;;;;;;24.02;4.60;;;;;;;5.60;100.00;102170.03;4959204;28;20455;-74
2022/01/29 21:18:24;;;;;;;33.05;4.55;;;;;;;5.93;100.00;102221.91;5009740;28;20046;-74
2022/01/29 21:20:56;;;;;;;29.42;5.18;;;;;;;5.95;100.00;102213.97;4975691;28;20112;-71
2022/01/29 21:23:23;;;;;;;32.17;5.43;;;;;;;5.92;100.00;102217.56;4998391;28;20117;-72
2022/01/29 21:25:49;;;;;;;34.42;4.90;;;;;;;5.92;100.00;102221.97;4994117;28;20025;-73
2022/01/29 21:28:16;;;;;;;31.30;4.35;;;;;;;5.68;100.00;102197.66;4985817;28;20026;-73
2022/01/29 21:30:41;;;;;;;32.03;5.05;;;;;;;5.65;100.00;102194.28;4994108;28;20544;-73
2022/01/29 21:33:08;;;;;;;29.88;4.70;;;;;;;5.82;100.00;102245.13;4974151;28;20048;-74
2022/01/29 21:35:38;;;;;;;35.17;5.43;;;;;;;5.60;100.00;102219.81;4995540;28;20034;-74
2022/01/29 21:38:18;;;;;;;29.58;5.20;;;;;;;5.65;100.00;102228.38;4971073;28;20840;-75
2022/01/29 21:40:46;;;;;;;32.20;5.30;;;;;;;5.73;100.00;102242.91;4962751;28;20048;-74
2022/01/29 21:43:13;;;;;;;29.08;3.95;;;;;;;5.81;100.00;102246.91;5003305;28;20026;-71
2022/01/29 21:45:39;;;;;;;26.95;3.63;;;;;;;5.85;100.00;102253.69;4968311;28;20049;-73
2022/01/29 21:48:07;;;;;;;28.25;5.15;;;;;;;5.61;100.00;102245.13;4996290;28;20038;-72
2022/01/29 21:50:37;;;;;;;30.65;3.80;;;;;;;5.69;100.00;102246.56;4976188;28;20026;-73
2022/01/29 21:53:04;;;;;;;29.58;3.97;;;;;;;5.68;100.00;102248.34;4991246;28;20029;-74
2022/01/29 21:55:33;;;;;;;32.70;4.68;;;;;;;5.53;100.00;102222.78;4963041;28;20035;-78
2022/01/29 21:57:58;;;;;;;34.28;4.07;;;;;;;5.71;100.00;102253.44;5014071;28;20079;-77
2022/01/29 22:00:24;;;;;;;33.03;4.82;;;;;;;5.68;100.00;102256.22;4995020;28;20132;-71
2022/01/29 22:02:50;;;;;;;24.10;3.97;;;;;;;5.59;100.00;102249.59;4999123;28;20037;-71
2022/01/29 22:05:16;;;;;;;35.67;4.97;;;;;;;5.65;100.00;102251.06;5015033;28;20487;-72
2022/01/29 22:07:41;;;;;;;25.33;4.03;;;;;;;5.39;100.00;102232.09;5014805;28;20029;-72
2022/01/29 22:10:07;;;;;;;40.38;5.25;;;;;;;5.54;100.00;102240.19;5032208;28;20025;-72
2022/01/29 22:12:33;;;;;;;27.13;4.40;;;;;;;5.54;100.00;102256.81;5016981;28;20213;-71
2022/01/29 22:15:06;;;;;;;28.63;3.80;;;;;;;5.32;100.00;102233.25;5012914;28;20025;-72
2022/01/29 22:17:35;;;;;;;31.73;4.13;;;;;;;5.41;100.00;102245.13;5003659;28;20164;-71
2022/01/29 22:20:02;;;;;;;34.33;4.68;;;;;;;5.61;100.00;102279.22;4997028;28;20052;-72
2022/01/29 22:22:28;;;;;;;35.33;4.78;;;;;;;5.60;100.00;102279.25;4997375;28;20041;-71
2022/01/29 22:24:53;;;;;;;40.17;5.90;;;;;;;5.42;100.00;102252.06;5018715;28;20022;-72
2022/01/29 22:27:21;;;;;;;32.95;4.35;;;;;;;5.36;100.00;102250.56;5019448;28;20026;-72
2022/01/29 22:29:48;;;;;;;33.15;4.53;;;;;;;5.54;100.00;102263.78;5015058;28;20475;-71
2022/01/29 22:32:14;;;;;;;27.75;4.10;;;;;;;5.53;100.00;102275.19;5015597;28;20025;-72
2022/01/29 22:34:40;;;;;;;26.83;3.90;;;;;;;5.65;100.00;102295.63;5028387;28;20018;-72
2022/01/29 22:37:08;;;;;;;34.92;4.65;;;;;;;5.54;100.00;102285.63;5012849;28;20018;-72
2022/01/29 22:39:36;;;;;;;40.13;5.22;;;;;;;5.61;100.00;102294.94;5017807;28;20032;-72
2022/01/29 22:42:02;;;;;;;28.25;4.63;;;;;;;5.56;100.00;102316.97;5030303;28;20155;-72
2022/01/29 22:44:28;;;;;;;26.50;5.20;;;;;;;5.53;100.00;102323.22;5015566;28;20109;-72
2022/01/29 22:46:53;;;;;;;32.28;4.78;;;;;;;5.12;100.00;102268.13;5017596;28;20025;-71
2022/01/29 22:49:21;;;;;;;30.98;5.18;;;;;;;5.29;100.00;102293.66;5018898;28;20471;-73
2022/01/29 22:51:47;;;;;;;29.85;4.57;;;;;;;5.52;100.00;102323.25;5018482;28;20104;-73
2022/01/29 22:54:12;;;;;;;34.75;4.68;;;;;;;5.22;100.00;102297.41;5020008;28;20124;-74
2022/01/29 22:56:38;;;;;;;25.20;3.88;;;;;;;5.23;100.00;102279.03;5025737;28;20024;-72
2022/01/29 22:59:05;;;;;;;33.70;5.30;;;;;;;5.39;100.00;102317.69;5010818;28;20133;-72
2022/01/29 23:01:32;;;;;;;36.05;4.68;;;;;;;5.39;100.00;102320.31;5004297;28;20038;-72
2022/01/29 23:03:58;;;;;;;30.77;4.45;;;;;;;5.35;100.00;102318.72;5013049;28;20034;-71
2022/01/29 23:06:24;;;;;;;34.80;4.47;;;;;;;5.37;100.00;102333.47;5014298;28;20041;-73
2022/01/29 23:08:52;;;;;;;31.90;5.18;;;;;;;5.31;100.00;102323.22;5008532;28;20034;-73
2022/01/29 23:11:24;;;;;;;36.22;4.60;;;;;;;5.37;100.00;102328.22;5009381;28;20026;-73
2022/01/29 23:13:57;;;;;;;31.50;4.65;;;;;;;5.12;100.00;102304.78;4999019;28;20049;-72
2022/01/29 23:18:57;;;;;;;30.80;5.15;;;;;;;5.16;100.00;102332.56;4996309;28;20041;-73
2022/01/29 23:23:53;;;;;;;27.45;3.90;;;;;;;5.32;100.00;102345.06;4978174;28;20130;-71
2022/01/29 23:26:37;;;;;;;26.42;4.15;;;;;;;5.23;100.00;102331.41;4996037;28;20038;-72
2022/01/29 23:29:30;;;;;;;24.60;3.63;;;;;;;5.20;100.00;102352.50;4995404;28;20382;-71
2022/01/29 23:32:05;;;;;;;29.00;4.25;;;;;;;5.23;100.00;102354.13;4995158;28;20053;-71
2022/01/29 23:39:35;;;;;;;30.25;3.67;;;;;;;5.49;100.00;102370.56;4993691;28;20460;-71
2022/01/29 23:44:46;;;;;;;27.00;4.63;;;;;;;5.32;100.00;102353.75;4994515;28;20122;-71
2022/01/29 23:49:56;;;;;;;35.47;4.30;;;;;;;5.22;100.00;102347.16;5008329;28;20033;-72
2022/01/29 23:52:22;;;;;;;33.42;4.22;;;;;;;5.12;100.00;102354.53;5013825;28;20046;-72
2022/01/29 23:54:47;;;;;;;33.80;5.22;;;;;;;5.02;100.00;102351.44;5014230;28;20033;-71
2022/01/29 23:57:13;;;;;;;32.92;5.05;;;;;;;5.10;100.00;102376.47;5014166;28;20033;-73
2022/01/29 23:59:39;;;;;;;28.55;4.38;;;;;;;4.98;100.00;102356.84;5028521;28;20107;-72
